createdAt,value
2019-02-12T00:02:18.180Z,18.45
2019-02-12T00:04:46.698Z,18.57
2019-02-12T00:07:16.943Z,21.70
2019-02-12T00:09:50.832Z,20.03
2019-02-12T00:12:19.581Z,22.27
2019-02-12T00:14:48.031Z,18.83
2019-02-12T00:17:16.304Z,18.02
2019-02-12T00:19:47.697Z,15.75
2019-02-12T00:22:17.601Z,14.10
2019-02-12T00:24:51.243Z,16.30
2019-02-12T00:27:22.671Z,18.77
2019-02-12T00:29:50.279Z,19.23
2019-02-12T00:32:22.311Z,18.17
2019-02-12T00:34:52.735Z,16.77
2019-02-12T00:37:21.327Z,25.93
2019-02-12T00:39:49.095Z,14.80
2019-02-12T00:42:18.147Z,21.67
2019-02-12T00:44:46.881Z,14.80
2019-02-12T00:47:14.547Z,11.05
2019-02-12T00:49:45.380Z,16.20
2019-02-12T00:52:13.536Z,25.73
2019-02-12T00:54:43.628Z,21.73
2019-02-12T00:57:11.501Z,19.77
2019-02-12T00:59:39.373Z,24.17
2019-02-12T01:02:09.959Z,13.03
2019-02-12T01:04:38.016Z,15.30
2019-02-12T01:07:06.554Z,13.02
2019-02-12T01:09:36.392Z,17.23
2019-02-12T01:12:07.578Z,18.67
2019-02-12T01:14:37.002Z,17.63
2019-02-12T01:17:04.818Z,16.33
2019-02-12T01:19:35.283Z,20.20
2019-02-12T01:22:06.518Z,21.98
2019-02-12T01:24:35.502Z,19.07
2019-02-12T01:27:03.817Z,13.57
2019-02-12T01:29:32.504Z,17.37
2019-02-12T01:32:02.372Z,22.27
2019-02-12T01:34:31.298Z,14.55
2019-02-12T01:37:00.566Z,16.40
2019-02-12T01:39:30.978Z,18.83
2019-02-12T01:42:00.223Z,13.65
2019-02-12T01:44:29.787Z,20.00
2019-02-12T01:46:57.679Z,21.23
2019-02-12T01:49:27.616Z,18.20
2019-02-12T01:51:57.774Z,17.53
2019-02-12T01:54:27.841Z,17.63
2019-02-12T01:56:57.194Z,14.57
2019-02-12T01:59:25.168Z,20.10
2019-02-12T02:01:54.212Z,15.27
2019-02-12T02:04:22.497Z,18.53
2019-02-12T02:06:52.323Z,12.23
2019-02-12T02:09:22.421Z,16.87
2019-02-12T02:11:50.774Z,14.07
2019-02-12T02:14:23.099Z,18.60
2019-02-12T02:16:53.874Z,14.03
2019-02-12T02:19:21.980Z,18.87
2019-02-12T02:21:52.197Z,16.60
2019-02-12T02:24:20.973Z,17.00
2019-02-12T02:26:50.811Z,20.88
2019-02-12T02:29:19.075Z,17.47
2019-02-12T02:31:48.233Z,18.27
2019-02-12T02:34:17.221Z,24.00
2019-02-12T02:36:47.137Z,17.95
2019-02-12T02:39:16.886Z,18.33
2019-02-12T02:41:47.123Z,18.10
2019-02-12T02:44:15.914Z,16.07
2019-02-12T02:46:45.838Z,15.18
2019-02-12T02:49:14.986Z,20.80
2019-02-12T02:51:42.778Z,15.73
2019-02-12T02:54:13.321Z,12.27
2019-02-12T02:56:42.160Z,15.67
2019-02-12T02:59:10.512Z,11.68
2019-02-12T03:01:40.969Z,14.90
2019-02-12T03:04:09.434Z,17.73
2019-02-12T03:06:38.767Z,10.77
2019-02-12T03:09:08.646Z,16.80
2019-02-12T03:11:37.064Z,18.60
2019-02-12T03:14:05.276Z,13.80
2019-02-12T03:16:33.997Z,8.70
2019-02-12T03:19:02.290Z,18.50
2019-02-12T03:21:30.401Z,15.50
2019-02-12T03:23:58.837Z,9.77
2019-02-12T03:26:30.810Z,18.87
2019-02-12T03:28:58.784Z,11.07
2019-02-12T03:31:27.268Z,19.20
2019-02-12T03:33:56.071Z,19.42
2019-02-12T03:36:24.577Z,15.77
2019-02-12T03:38:52.703Z,20.23
2019-02-12T03:41:21.055Z,13.80
2019-02-12T03:43:51.803Z,15.90
2019-02-12T03:46:24.135Z,13.00
2019-02-12T03:48:53.911Z,14.17
2019-02-12T03:51:22.903Z,12.20
2019-02-12T03:53:52.319Z,15.90
2019-02-12T03:56:21.286Z,11.87
2019-02-12T03:58:49.890Z,19.33
2019-02-12T04:01:18.361Z,11.43
2019-02-12T04:03:46.742Z,21.33
2019-02-12T04:06:16.317Z,13.40
2019-02-12T04:08:46.656Z,16.77
2019-02-12T04:11:15.513Z,17.70
2019-02-12T04:13:44.551Z,16.87
2019-02-12T04:16:12.419Z,13.87
2019-02-12T04:18:42.012Z,17.73
2019-02-12T04:21:10.062Z,11.43
2019-02-12T04:23:39.021Z,13.17
2019-02-12T04:26:06.882Z,9.93
2019-02-12T04:28:39.009Z,19.17
2019-02-12T04:31:07.477Z,19.23
2019-02-12T04:33:38.516Z,13.73
2019-02-12T04:36:07.511Z,12.17
2019-02-12T04:38:36.203Z,16.33
2019-02-12T04:41:05.509Z,12.43
2019-02-12T04:43:34.555Z,18.17
2019-02-12T04:46:02.449Z,17.17
2019-02-12T04:48:31.250Z,17.17
2019-02-12T04:51:00.905Z,16.17
2019-02-12T04:53:30.207Z,16.80
2019-02-12T04:55:58.762Z,16.50
2019-02-12T04:58:27.840Z,17.95
2019-02-12T05:00:56.387Z,14.18
2019-02-12T05:03:25.142Z,24.40
2019-02-12T05:05:57.010Z,16.60
2019-02-12T05:08:26.550Z,13.55
2019-02-12T05:10:59.869Z,11.77
2019-02-12T05:13:27.914Z,23.83
2019-02-12T05:15:57.852Z,22.87
2019-02-12T05:18:29.747Z,16.77
2019-02-12T05:21:01.390Z,19.37
2019-02-12T05:23:30.904Z,18.25
2019-02-12T05:26:01.425Z,12.93
2019-02-12T05:28:29.474Z,17.35
2019-02-12T05:30:57.930Z,16.93
2019-02-12T05:33:27.097Z,17.30
2019-02-12T05:35:55.967Z,14.55
2019-02-12T05:38:24.610Z,15.10
2019-02-12T05:40:53.530Z,15.57
2019-02-12T05:43:22.396Z,11.90
2019-02-12T05:45:51.461Z,16.17
2019-02-12T05:48:19.473Z,19.92
2019-02-12T05:50:48.360Z,22.40
2019-02-12T05:53:16.677Z,20.10
2019-02-12T05:55:44.831Z,20.08
2019-02-12T05:58:15.028Z,15.77
2019-02-12T06:00:42.806Z,16.35
2019-02-12T06:03:10.953Z,19.50
2019-02-12T06:05:39.489Z,18.95
2019-02-12T06:08:07.912Z,19.75
2019-02-12T06:10:35.977Z,14.80
2019-02-12T06:13:04.126Z,11.68
2019-02-12T06:15:32.846Z,14.75
2019-02-12T06:18:01.246Z,17.75
2019-02-12T06:20:30.156Z,19.30
2019-02-12T06:23:03.806Z,10.63
2019-02-12T06:25:28.434Z,13.13
2019-02-12T06:27:56.031Z,11.00
2019-02-12T06:30:24.187Z,12.55
2019-02-12T06:32:52.618Z,18.17
2019-02-12T06:35:21.719Z,18.00
2019-02-12T06:37:51.187Z,21.10
2019-02-12T06:40:19.871Z,19.60
2019-02-12T06:42:48.913Z,18.77
2019-02-12T06:45:17.722Z,13.55
2019-02-12T06:47:47.880Z,14.00
2019-02-12T06:50:18.399Z,12.65
2019-02-12T06:52:47.131Z,15.63
2019-02-12T06:55:15.195Z,19.30
2019-02-12T06:57:43.399Z,16.60
2019-02-12T07:00:12.100Z,16.33
2019-02-12T07:02:58.121Z,12.80
2019-02-12T07:05:29.699Z,9.82
2019-02-12T07:08:21.658Z,13.25
2019-02-12T07:10:51.525Z,12.77
2019-02-12T07:13:46.251Z,17.70
2019-02-12T07:16:30.295Z,16.65
2019-02-12T07:19:11.346Z,15.75
2019-02-12T07:21:58.763Z,12.48
2019-02-12T07:24:56.434Z,15.55
2019-02-12T07:27:46.637Z,17.23
2019-02-12T07:30:23.952Z,13.68
2019-02-12T07:33:29.365Z,19.50
2019-02-12T07:36:17.405Z,20.27
2019-02-12T07:39:07.695Z,17.95
2019-02-12T07:42:09.958Z,16.02
2019-02-12T07:44:52.371Z,13.80
2019-02-12T07:47:46.256Z,14.80
2019-02-12T07:50:45.685Z,23.92
2019-02-12T07:53:31.212Z,14.45
2019-02-12T07:56:31.066Z,20.40
2019-02-12T07:59:22.175Z,14.10
2019-02-12T08:02:04.820Z,10.75
2019-02-12T08:04:52.318Z,18.05
2019-02-12T08:07:47.706Z,10.23
2019-02-12T08:10:41.264Z,13.00
2019-02-12T08:13:28.305Z,16.00
2019-02-12T08:16:03.978Z,14.93
2019-02-12T08:18:50.393Z,16.58
2019-02-12T08:21:28.003Z,11.70
2019-02-12T08:24:04.871Z,14.20
2019-02-12T08:26:44.343Z,15.23
2019-02-12T08:29:32.038Z,13.52
2019-02-12T08:32:18.236Z,18.10
2019-02-12T08:35:10.355Z,23.80
2019-02-12T08:37:56.736Z,10.82
2019-02-12T08:40:42.738Z,17.58
2019-02-12T08:43:16.773Z,16.62
2019-02-12T08:45:51.533Z,14.98
2019-02-12T08:48:29.503Z,18.30
2019-02-12T08:51:16.417Z,15.10
2019-02-12T08:54:07.095Z,12.18
2019-02-12T08:56:45.275Z,10.80
2019-02-12T08:59:39.577Z,20.02
2019-02-12T09:02:26.388Z,12.50
2019-02-12T09:05:16.898Z,10.57
2019-02-12T09:08:00.741Z,15.10
2019-02-12T09:10:51.353Z,10.48
2019-02-12T09:13:40.750Z,16.75
2019-02-12T09:16:26.564Z,14.55
2019-02-12T09:19:20.584Z,15.40
2019-02-12T09:22:10.932Z,17.10
2019-02-12T09:24:44.698Z,20.45
2019-02-12T09:27:27.716Z,10.93
2019-02-12T09:30:12.582Z,18.30
2019-02-12T09:32:59.220Z,18.62
2019-02-12T09:35:35.144Z,16.77
2019-02-12T09:38:25.490Z,14.57
2019-02-12T09:41:12.368Z,14.77
2019-02-12T09:43:48.923Z,14.45
2019-02-12T09:46:51.722Z,12.27
2019-02-12T09:49:37.178Z,16.12
2019-02-12T09:52:11.821Z,14.68
2019-02-12T09:54:47.958Z,18.52
2019-02-12T09:57:39.945Z,14.43
2019-02-12T10:00:38.296Z,14.20
2019-02-12T10:03:19.034Z,14.63
2019-02-12T10:06:25.093Z,16.65
2019-02-12T10:09:02.074Z,17.67
2019-02-12T10:11:42.443Z,11.77
2019-02-12T10:14:33.327Z,19.37
2019-02-12T10:17:26.759Z,14.82
2019-02-12T10:20:15.006Z,15.95
2019-02-12T10:23:01.868Z,14.15
2019-02-12T10:25:37.856Z,12.93
2019-02-12T10:28:25.966Z,17.70
2019-02-12T10:31:23.916Z,14.65
2019-02-12T10:33:52.739Z,13.32
2019-02-12T10:36:21.120Z,17.92
2019-02-12T10:38:54.477Z,14.05
2019-02-12T10:41:26.163Z,16.98
2019-02-12T10:43:55.084Z,13.27
2019-02-12T10:46:24.280Z,13.57
2019-02-12T10:48:52.899Z,13.18
2019-02-12T10:51:25.030Z,16.10
2019-02-12T10:53:53.764Z,13.10
2019-02-12T10:56:21.874Z,14.20
2019-02-12T10:58:50.345Z,12.05
2019-02-12T11:01:18.555Z,12.25
2019-02-12T11:03:47.169Z,19.12
2019-02-12T11:06:14.696Z,19.20
2019-02-12T11:08:43.135Z,15.85
2019-02-12T11:11:12.182Z,13.35
2019-02-12T11:13:45.075Z,11.48
2019-02-12T11:16:19.274Z,14.52
2019-02-12T11:18:50.293Z,14.73
2019-02-12T11:21:19.676Z,14.75
2019-02-12T11:23:49.605Z,35.60
2019-02-12T11:26:20.964Z,12.18
2019-02-12T11:28:51.929Z,15.07
2019-02-12T11:31:21.396Z,12.15
2019-02-12T11:33:49.600Z,16.98
2019-02-12T11:36:17.867Z,16.25
2019-02-12T11:38:47.202Z,15.77
2019-02-12T11:41:16.064Z,11.12
2019-02-12T11:43:48.030Z,13.80
2019-02-12T11:46:20.853Z,14.82
2019-02-12T11:48:49.212Z,11.23
2019-02-12T11:51:17.348Z,13.23
2019-02-12T11:53:45.343Z,10.88
2019-02-12T11:56:13.206Z,12.85
2019-02-12T11:58:40.861Z,14.90
2019-02-12T12:01:17.303Z,13.20
2019-02-12T12:03:48.525Z,15.05
2019-02-12T12:06:17.530Z,12.05
2019-02-12T12:08:45.631Z,13.60
2019-02-12T12:11:26.400Z,9.82
2019-02-12T12:13:56.080Z,13.55
2019-02-12T12:16:24.006Z,11.85
2019-02-12T12:18:53.880Z,10.43
2019-02-12T12:21:21.781Z,13.85
2019-02-12T12:23:52.515Z,18.00
2019-02-12T12:26:21.754Z,11.95
2019-02-12T12:28:53.506Z,13.20
2019-02-12T12:31:21.728Z,13.80
2019-02-12T12:33:53.135Z,13.15
2019-02-12T12:36:20.850Z,13.55
2019-02-12T12:38:48.710Z,13.90
2019-02-12T12:41:17.877Z,12.45
2019-02-12T12:43:46.354Z,15.25
2019-02-12T12:46:15.056Z,13.30
2019-02-12T12:48:42.949Z,16.45
2019-02-12T12:51:11.012Z,15.38
2019-02-12T12:53:41.241Z,14.43
2019-02-12T12:56:10.786Z,16.17
2019-02-12T12:58:38.933Z,11.50
2019-02-12T13:01:08.307Z,11.43
2019-02-12T13:03:44.624Z,17.10
2019-02-12T13:06:13.339Z,11.80
2019-02-12T13:08:42.118Z,16.37
2019-02-12T13:11:10.531Z,13.88
2019-02-12T13:13:41.032Z,15.73
2019-02-12T13:16:09.809Z,12.40
2019-02-12T13:18:40.482Z,12.88
2019-02-12T13:21:09.247Z,11.65
2019-02-12T13:23:40.649Z,13.98
2019-02-12T13:26:10.418Z,13.88
2019-02-12T13:28:42.400Z,12.18
2019-02-12T13:31:09.964Z,14.18
2019-02-12T13:33:38.160Z,25.05
2019-02-12T13:36:10.933Z,17.87
2019-02-12T13:38:41.330Z,14.98
2019-02-12T13:41:10.677Z,13.55
2019-02-12T13:43:39.148Z,11.85
2019-02-12T13:46:09.051Z,10.57
2019-02-12T13:48:39.887Z,10.20
2019-02-12T13:51:10.206Z,9.23
2019-02-12T13:53:40.546Z,6.40
2019-02-12T13:56:14.544Z,8.95
2019-02-12T13:58:44.223Z,9.63
2019-02-12T14:01:16.388Z,7.55
2019-02-12T14:03:48.156Z,8.70
2019-02-12T14:06:18.089Z,6.97
2019-02-12T14:08:48.467Z,8.05
2019-02-12T14:11:17.335Z,8.80
2019-02-12T14:13:46.067Z,8.55
2019-02-12T14:16:16.074Z,13.55
2019-02-12T14:18:44.108Z,7.53
2019-02-12T14:21:14.056Z,8.70
2019-02-12T14:23:44.172Z,9.77
2019-02-12T14:26:16.936Z,12.48
2019-02-12T14:28:47.437Z,9.70
2019-02-12T14:31:16.348Z,9.88
2019-02-12T14:33:47.721Z,9.40
2019-02-12T14:36:19.427Z,9.40
2019-02-12T14:38:48.895Z,7.40
2019-02-12T14:41:19.240Z,7.87
2019-02-12T14:43:47.559Z,8.98
2019-02-12T14:46:15.907Z,12.70
2019-02-12T14:48:47.632Z,10.43
2019-02-12T14:51:18.419Z,11.23
2019-02-12T14:53:46.798Z,9.00
2019-02-12T14:56:15.695Z,10.68
2019-02-12T14:58:45.457Z,10.95
2019-02-12T15:01:15.988Z,11.25
2019-02-12T15:03:47.852Z,7.47
2019-02-12T15:06:17.760Z,9.23
2019-02-12T15:08:46.634Z,7.40
2019-02-12T15:11:15.856Z,6.57
2019-02-12T15:13:44.845Z,8.95
2019-02-12T15:16:13.380Z,9.73
2019-02-12T15:18:42.313Z,7.45
2019-02-12T15:21:13.190Z,7.87
2019-02-12T15:23:41.834Z,15.43
2019-02-12T15:26:10.143Z,9.38
2019-02-12T15:28:38.650Z,8.40
2019-02-12T15:31:07.691Z,8.88
2019-02-12T15:33:36.099Z,11.38
2019-02-12T15:36:05.883Z,8.65
2019-02-12T15:38:33.821Z,13.43
2019-02-12T15:41:02.150Z,12.63
2019-02-12T15:43:30.742Z,10.52
2019-02-12T15:46:02.655Z,10.63
2019-02-12T15:48:32.119Z,10.95
2019-02-12T15:51:01.901Z,10.20
2019-02-12T15:53:29.593Z,12.32
2019-02-12T15:55:57.368Z,11.70
2019-02-12T15:58:28.386Z,11.98
2019-02-12T16:00:56.350Z,8.38
2019-02-12T16:03:25.115Z,12.07
2019-02-12T16:05:56.628Z,11.20
2019-02-12T16:08:27.930Z,10.70
2019-02-12T16:10:56.982Z,12.73
2019-02-12T16:13:27.634Z,13.00
2019-02-12T16:16:00.553Z,9.30
2019-02-12T16:18:29.390Z,10.68
2019-02-12T16:20:59.512Z,10.85
2019-02-12T16:23:33.168Z,14.18
2019-02-12T16:26:06.501Z,14.05
2019-02-12T16:28:37.526Z,10.85
2019-02-12T16:31:05.885Z,12.43
2019-02-12T16:33:35.020Z,13.45
2019-02-12T16:36:03.974Z,12.18
2019-02-12T16:38:35.157Z,10.00
2019-02-12T16:41:06.016Z,11.50
2019-02-12T16:43:35.409Z,12.32
2019-02-12T16:46:10.078Z,11.00
2019-02-12T16:48:37.639Z,11.10
2019-02-12T16:51:05.645Z,10.52
2019-02-12T16:53:35.707Z,11.98
2019-02-12T16:56:08.358Z,15.25
2019-02-12T16:58:32.072Z,13.18
2019-02-12T17:01:00.275Z,13.40
2019-02-12T17:03:29.696Z,16.10
2019-02-12T17:05:59.529Z,13.88
2019-02-12T17:08:28.964Z,12.90
2019-02-12T17:10:57.209Z,16.20
2019-02-12T17:13:26.026Z,15.20
2019-02-12T17:15:54.904Z,13.48
2019-02-12T17:18:23.837Z,14.10
2019-02-12T17:20:52.087Z,15.38
2019-02-12T17:23:21.937Z,16.37
2019-02-12T17:25:49.805Z,13.48
2019-02-12T17:28:18.618Z,15.60
2019-02-12T17:30:48.944Z,16.50
2019-02-12T17:33:18.075Z,14.32
2019-02-12T17:35:46.579Z,12.95
2019-02-12T17:38:14.539Z,17.20
2019-02-12T17:40:43.221Z,15.05
2019-02-12T17:43:12.212Z,16.25
2019-02-12T17:45:42.571Z,14.32
2019-02-12T17:48:11.865Z,13.90
2019-02-12T17:50:41.228Z,16.60
2019-02-12T17:53:09.598Z,15.68
2019-02-12T17:55:39.005Z,16.17
2019-02-12T17:58:10.255Z,14.48
2019-02-12T18:00:42.477Z,18.87
2019-02-12T18:03:11.191Z,15.23
2019-02-12T18:05:39.144Z,17.15
2019-02-12T18:08:08.361Z,16.30
2019-02-12T18:10:36.303Z,14.75
2019-02-12T18:13:04.698Z,14.40
2019-02-12T18:15:35.082Z,14.10
2019-02-12T18:18:03.169Z,15.07
2019-02-12T18:20:33.544Z,18.42
2019-02-12T18:23:02.257Z,16.00
2019-02-12T18:25:31.235Z,16.35
2019-02-12T18:27:59.417Z,17.90
2019-02-12T18:30:28.501Z,14.73
2019-02-12T18:32:57.395Z,17.25
2019-02-12T18:35:25.091Z,14.85
2019-02-12T18:37:53.646Z,17.08
2019-02-12T18:40:21.759Z,18.58
2019-02-12T18:42:50.303Z,14.48
2019-02-12T18:45:21.012Z,18.60
2019-02-12T18:47:50.630Z,13.85
2019-02-12T18:50:19.264Z,16.75
2019-02-12T18:52:47.863Z,17.08
2019-02-12T18:55:16.216Z,19.23
2019-02-12T18:57:44.933Z,19.45
2019-02-12T19:00:14.883Z,15.90
2019-02-12T19:02:43.525Z,17.17
2019-02-12T19:05:11.172Z,16.60
2019-02-12T19:07:40.264Z,19.12
2019-02-12T19:10:10.018Z,24.77
2019-02-12T19:12:37.899Z,17.70
2019-02-12T19:15:06.716Z,20.23
2019-02-12T19:17:35.975Z,18.77
2019-02-12T19:20:04.050Z,18.23
2019-02-12T19:22:33.408Z,17.50
2019-02-12T19:25:02.763Z,20.40
2019-02-12T19:27:31.454Z,21.37
2019-02-12T19:30:03.136Z,18.60
2019-02-12T19:32:31.902Z,19.55
2019-02-12T19:35:00.766Z,18.12
2019-02-12T19:37:30.791Z,19.48
2019-02-12T19:39:59.588Z,17.87
2019-02-12T19:42:27.613Z,25.17
2019-02-12T19:44:55.966Z,18.80
2019-02-12T19:47:24.431Z,20.33
2019-02-12T19:49:54.152Z,20.25
2019-02-12T19:52:23.313Z,21.00
2019-02-12T19:54:51.903Z,22.67
2019-02-12T19:57:19.907Z,23.35
2019-02-12T19:59:48.583Z,23.92
2019-02-12T20:02:16.725Z,22.15
2019-02-12T20:04:46.392Z,19.83
2019-02-12T20:07:16.245Z,23.25
2019-02-12T20:09:44.298Z,22.67
2019-02-12T20:12:12.764Z,26.37
2019-02-12T20:14:41.057Z,22.05
2019-02-12T20:17:10.308Z,23.95
2019-02-12T20:19:39.939Z,22.90
2019-02-12T20:22:08.378Z,25.12
2019-02-12T20:24:37.256Z,31.05
2019-02-12T20:27:06.982Z,26.08
2019-02-12T20:29:35.494Z,26.23
2019-02-12T20:32:04.089Z,25.17
2019-02-12T20:34:33.756Z,27.37
2019-02-12T20:37:01.865Z,27.83
2019-02-12T20:39:30.617Z,25.65
2019-02-12T20:41:58.855Z,22.65
2019-02-12T20:44:27.577Z,25.98
2019-02-12T20:46:55.929Z,27.13
2019-02-12T20:49:24.774Z,26.25
2019-02-12T20:51:53.493Z,20.55
2019-02-12T20:54:22.588Z,26.00
2019-02-12T20:56:54.079Z,20.62
2019-02-12T20:59:22.973Z,22.15
2019-02-12T21:01:51.860Z,23.75
2019-02-12T21:04:20.882Z,19.77
2019-02-12T21:06:51.208Z,20.92
2019-02-12T21:09:20.112Z,22.35
2019-02-12T21:11:51.518Z,22.02
2019-02-12T21:14:20.477Z,22.05
2019-02-12T21:16:49.353Z,19.33
2019-02-12T21:19:19.536Z,23.55
2019-02-12T21:21:47.229Z,20.55
2019-02-12T21:24:15.841Z,20.98
2019-02-12T21:26:43.908Z,21.90
2019-02-12T21:29:13.334Z,25.37
2019-02-12T21:31:41.456Z,24.02
2019-02-12T21:34:11.085Z,21.75
2019-02-12T21:36:39.242Z,24.00
2019-02-12T21:39:07.610Z,24.65
2019-02-12T21:41:35.777Z,20.73
2019-02-12T21:44:04.809Z,22.52
2019-02-12T21:46:33.501Z,21.85
2019-02-12T21:49:01.761Z,20.58
2019-02-12T21:51:29.966Z,22.65
2019-02-12T21:53:59.500Z,22.20
2019-02-12T21:56:28.194Z,21.50
2019-02-12T21:58:57.814Z,23.17
2019-02-12T22:01:26.677Z,22.10
2019-02-12T22:03:55.076Z,21.73
2019-02-12T22:06:23.847Z,22.20
2019-02-12T22:08:52.948Z,23.42
2019-02-12T22:11:20.868Z,22.60
2019-02-12T22:13:49.145Z,17.87
2019-02-12T22:16:17.186Z,21.20
2019-02-12T22:18:45.328Z,19.30
2019-02-12T22:21:13.761Z,20.00
2019-02-12T22:23:44.907Z,19.20
2019-02-12T22:26:14.108Z,21.15
2019-02-12T22:28:42.507Z,20.23
2019-02-12T22:31:11.694Z,25.15
2019-02-12T22:33:39.450Z,22.65
2019-02-12T22:36:07.930Z,23.02
2019-02-12T22:38:36.188Z,25.48
2019-02-12T22:41:04.534Z,20.70
2019-02-12T22:43:33.060Z,21.50
2019-02-12T22:46:03.981Z,24.27
2019-02-12T22:48:32.423Z,21.12
2019-02-12T22:51:01.811Z,24.42
2019-02-12T22:53:30.479Z,20.00
2019-02-12T22:55:58.662Z,21.73
2019-02-12T22:58:27.746Z,24.95
2019-02-12T23:01:00.879Z,21.58
2019-02-12T23:03:30.455Z,26.85
2019-02-12T23:06:00.654Z,24.10
2019-02-12T23:08:28.486Z,22.08
2019-02-12T23:10:57.552Z,21.95
2019-02-12T23:13:26.637Z,21.25
2019-02-12T23:15:55.561Z,21.87
2019-02-12T23:18:23.556Z,23.48
2019-02-12T23:20:53.666Z,23.58
2019-02-12T23:23:23.375Z,26.40
2019-02-12T23:25:54.206Z,28.87
2019-02-12T23:28:23.183Z,33.22
2019-02-12T23:30:51.422Z,23.83
2019-02-12T23:33:19.854Z,26.98
2019-02-12T23:35:48.541Z,27.67
2019-02-12T23:38:16.537Z,23.40
2019-02-12T23:40:45.020Z,29.30
2019-02-12T23:43:13.188Z,26.12
2019-02-12T23:45:41.228Z,28.50
2019-02-12T23:48:11.726Z,26.27
2019-02-12T23:50:41.468Z,23.15
2019-02-12T23:53:10.421Z,20.83
2019-02-12T23:55:39.142Z,19.92
2019-02-12T23:58:09.380Z,24.65
